Terminal Aerodrome Forecast
Issued by NWS

Home | Current Version | Previous Version | Text Only | Print | Product List | Glossary On
Versions: 1 2 3 4 5 6 7 8 9 10 11 12 13 14
000
FTUS45 KTFX 301746
TAFBZN
TAF
KBZN 301746Z 3018/3118 VRB05KT P6SM SCT015 BKN040
     FM302100 VRB05KT P6SM VCSH SCT015 BKN035
     FM310000 32010KT P6SM -SHRA OVC025
     FM310300 30010KT 3SM -RA BR OVC025
     FM310700 30010KT P6SM -SHRA OVC025=

USA.gov is the U.S. government's official web portal to all federal, state and local government web resources and services.